createdAt,value
2023-03-24T00:01:30.182Z,100.00
2023-03-24T00:03:59.455Z,100.00
2023-03-24T00:06:28.380Z,100.00
2023-03-24T00:08:56.982Z,100.00
2023-03-24T00:11:26.731Z,100.00
2023-03-24T00:13:58.727Z,100.00
2023-03-24T00:16:27.678Z,100.00
2023-03-24T00:18:58.177Z,100.00
2023-03-24T00:21:27.389Z,100.00
2023-03-24T00:23:58.571Z,100.00
2023-03-24T00:26:28.533Z,100.00
2023-03-24T00:28:57.413Z,100.00
2023-03-24T00:31:26.710Z,100.00
2023-03-24T00:33:56.870Z,100.00
2023-03-24T00:36:29.663Z,100.00
2023-03-24T00:38:58.474Z,100.00
2023-03-24T00:41:29.102Z,100.00
2023-03-24T00:43:59.821Z,100.00
2023-03-24T00:46:29.105Z,100.00
2023-03-24T00:49:03.828Z,100.00
2023-03-24T00:51:34.129Z,100.00
2023-03-24T00:54:03.267Z,100.00
2023-03-24T00:56:33.605Z,100.00
2023-03-24T00:59:02.695Z,100.00
2023-03-24T01:01:35.596Z,100.00
2023-03-24T01:04:07.238Z,100.00
2023-03-24T01:06:38.040Z,100.00
2023-03-24T01:09:07.679Z,100.00
2023-03-24T01:11:40.306Z,100.00
2023-03-24T01:14:10.586Z,100.00
2023-03-24T01:16:39.518Z,100.00
2023-03-24T01:19:10.723Z,100.00
2023-03-24T01:21:40.336Z,100.00
2023-03-24T01:24:09.708Z,100.00
2023-03-24T01:26:38.254Z,100.00
2023-03-24T01:29:07.788Z,100.00
2023-03-24T01:31:36.757Z,100.00
2023-03-24T01:34:06.126Z,100.00
2023-03-24T01:36:36.399Z,100.00
2023-03-24T01:39:06.122Z,100.00
2023-03-24T01:41:37.802Z,100.00
2023-03-24T01:44:31.337Z,100.00
2023-03-24T01:47:01.184Z,100.00
2023-03-24T01:49:34.602Z,100.00
2023-03-24T01:52:08.826Z,100.00
2023-03-24T01:54:40.135Z,100.00
2023-03-24T01:57:13.789Z,100.00
2023-03-24T01:59:47.794Z,100.00
2023-03-24T02:02:17.543Z,100.00
2023-03-24T02:04:50.610Z,100.00
2023-03-24T02:07:34.478Z,100.00
2023-03-24T02:10:06.403Z,100.00
2023-03-24T02:12:35.611Z,100.00
2023-03-24T02:15:06.004Z,100.00
2023-03-24T02:17:54.927Z,100.00
2023-03-24T02:20:56.359Z,100.00
2023-03-24T02:24:07.161Z,100.00
2023-03-24T02:27:03.542Z,100.00
2023-03-24T02:30:05.367Z,100.00
2023-03-24T02:33:26.113Z,100.00
2023-03-24T02:36:13.435Z,100.00
2023-03-24T02:39:10.212Z,100.00
2023-03-24T02:41:46.041Z,100.00
2023-03-24T02:44:21.725Z,100.00
2023-03-24T02:46:57.959Z,100.00
2023-03-24T02:49:33.529Z,100.00
2023-03-24T02:52:06.837Z,100.00
2023-03-24T02:54:46.027Z,100.00
2023-03-24T02:57:23.660Z,100.00
2023-03-24T02:59:59.104Z,100.00
2023-03-24T03:02:32.253Z,100.00
2023-03-24T03:05:05.627Z,100.00
2023-03-24T03:07:37.776Z,100.00
2023-03-24T03:10:16.686Z,100.00
2023-03-24T03:12:49.477Z,100.00
2023-03-24T03:15:23.500Z,100.00
2023-03-24T03:17:55.963Z,100.00
2023-03-24T03:20:27.020Z,100.00
2023-03-24T03:23:01.534Z,100.00
2023-03-24T03:25:37.305Z,100.00
2023-03-24T03:28:08.471Z,100.00
2023-03-24T03:30:42.154Z,100.00
2023-03-24T03:33:18.477Z,100.00
2023-03-24T03:35:53.764Z,100.00
2023-03-24T03:38:27.734Z,100.00
2023-03-24T03:41:00.033Z,100.00
2023-03-24T03:43:29.415Z,100.00
2023-03-24T03:45:58.692Z,100.00
2023-03-24T03:48:27.847Z,100.00
2023-03-24T03:51:10.151Z,100.00
2023-03-24T03:53:48.689Z,100.00
2023-03-24T03:56:21.262Z,100.00
2023-03-24T03:58:50.343Z,100.00
2023-03-24T04:01:22.265Z,100.00
2023-03-24T04:04:26.940Z,100.00
2023-03-24T04:07:10.989Z,100.00
2023-03-24T04:09:48.630Z,100.00
2023-03-24T04:12:51.301Z,100.00
2023-03-24T04:15:56.003Z,100.00
2023-03-24T04:18:46.295Z,100.00
2023-03-24T04:21:52.263Z,100.00
2023-03-24T04:24:33.045Z,100.00
2023-03-24T04:27:09.633Z,100.00
2023-03-24T04:29:48.154Z,100.00
2023-03-24T04:32:22.891Z,100.00
2023-03-24T04:35:01.620Z,100.00
2023-03-24T04:37:38.178Z,100.00
2023-03-24T04:40:14.100Z,100.00
2023-03-24T04:42:46.650Z,100.00
2023-03-24T04:45:18.506Z,100.00
2023-03-24T04:47:54.050Z,100.00
2023-03-24T04:50:31.858Z,100.00
2023-03-24T04:53:00.834Z,100.00
2023-03-24T04:55:58.655Z,100.00
2023-03-24T04:58:27.477Z,100.00
2023-03-24T05:00:58.979Z,100.00
2023-03-24T05:03:28.279Z,100.00
2023-03-24T05:05:56.914Z,100.00
2023-03-24T05:08:25.517Z,100.00
2023-03-24T05:10:54.070Z,100.00
2023-03-24T05:13:22.725Z,100.00
2023-03-24T05:15:51.188Z,100.00
2023-03-24T05:18:21.083Z,100.00
2023-03-24T05:20:49.815Z,100.00
2023-03-24T05:23:18.532Z,100.00
2023-03-24T05:25:48.156Z,100.00
2023-03-24T05:28:17.002Z,100.00
2023-03-24T05:30:46.198Z,100.00
2023-03-24T05:33:14.740Z,100.00
2023-03-24T05:35:45.001Z,100.00
2023-03-24T05:38:13.928Z,100.00
2023-03-24T05:40:42.490Z,100.00
2023-03-24T05:43:12.462Z,100.00
2023-03-24T05:45:40.944Z,100.00
2023-03-24T05:48:09.721Z,100.00
2023-03-24T05:50:38.332Z,100.00
2023-03-24T05:53:08.255Z,100.00
2023-03-24T05:55:37.931Z,100.00
2023-03-24T05:58:06.388Z,100.00
2023-03-24T06:00:35.960Z,100.00
2023-03-24T06:03:06.074Z,100.00
2023-03-24T06:05:36.260Z,100.00
2023-03-24T06:08:17.217Z,100.00
2023-03-24T06:10:45.714Z,100.00
2023-03-24T06:13:14.216Z,100.00
2023-03-24T06:15:43.583Z,100.00
2023-03-24T06:18:14.417Z,100.00
2023-03-24T06:20:42.904Z,100.00
2023-03-24T06:23:13.370Z,100.00
2023-03-24T06:25:44.651Z,100.00
2023-03-24T06:28:14.482Z,100.00
2023-03-24T06:30:46.991Z,100.00
2023-03-24T06:33:15.909Z,100.00
2023-03-24T06:35:45.183Z,100.00
2023-03-24T06:38:15.694Z,100.00
2023-03-24T06:40:44.082Z,100.00
2023-03-24T06:43:12.563Z,100.00
2023-03-24T06:45:40.923Z,100.00
2023-03-24T06:48:09.472Z,100.00
2023-03-24T06:50:39.394Z,100.00
2023-03-24T06:53:10.089Z,100.00
2023-03-24T06:55:40.267Z,100.00
2023-03-24T06:58:08.750Z,100.00
2023-03-24T07:00:37.501Z,100.00
2023-03-24T07:03:06.438Z,100.00
2023-03-24T07:05:35.857Z,100.00
2023-03-24T07:08:27.856Z,100.00
2023-03-24T07:10:54.928Z,100.00
2023-03-24T07:13:23.573Z,100.00
2023-03-24T07:15:52.311Z,100.00
2023-03-24T07:18:20.831Z,100.00
2023-03-24T07:20:49.469Z,100.00
2023-03-24T07:23:17.931Z,100.00
2023-03-24T07:25:47.145Z,100.00
2023-03-24T07:28:17.047Z,100.00
2023-03-24T07:30:45.790Z,100.00
2023-03-24T07:33:14.284Z,100.00
2023-03-24T07:35:44.074Z,100.00
2023-03-24T07:38:13.168Z,100.00
2023-03-24T07:40:41.683Z,100.00
2023-03-24T07:43:10.123Z,100.00
2023-03-24T07:45:40.464Z,100.00
2023-03-24T07:48:09.316Z,100.00
2023-03-24T07:50:38.127Z,100.00
2023-03-24T07:53:09.943Z,100.00
2023-03-24T07:55:38.643Z,100.00
2023-03-24T07:58:07.565Z,100.00
2023-03-24T08:00:37.826Z,100.00
2023-03-24T08:03:09.793Z,100.00
2023-03-24T08:05:38.802Z,100.00
2023-03-24T08:08:07.383Z,100.00
2023-03-24T08:10:36.132Z,100.00
2023-03-24T08:13:07.741Z,100.00
2023-03-24T08:15:36.320Z,100.00
2023-03-24T08:18:05.576Z,100.00
2023-03-24T08:20:36.277Z,100.00
2023-03-24T08:23:05.090Z,100.00
2023-03-24T08:25:34.477Z,100.00
2023-03-24T08:28:03.233Z,100.00
2023-03-24T08:30:31.876Z,100.00
2023-03-24T08:33:01.962Z,100.00
2023-03-24T08:35:32.955Z,100.00
2023-03-24T08:38:06.876Z,100.00
2023-03-24T08:40:38.073Z,100.00
2023-03-24T08:43:09.729Z,100.00
2023-03-24T08:45:39.066Z,100.00
2023-03-24T08:48:10.009Z,100.00
2023-03-24T08:50:40.148Z,100.00
2023-03-24T08:53:12.825Z,100.00
2023-03-24T08:55:43.551Z,100.00
2023-03-24T08:58:15.905Z,100.00
2023-03-24T09:00:45.871Z,100.00
2023-03-24T09:03:18.745Z,100.00
2023-03-24T09:05:48.771Z,100.00
2023-03-24T09:08:22.146Z,100.00
2023-03-24T09:10:51.629Z,100.00
2023-03-24T09:13:21.309Z,100.00
2023-03-24T09:15:51.897Z,100.00
2023-03-24T09:18:22.211Z,100.00
2023-03-24T09:20:52.283Z,100.00
2023-03-24T09:23:22.961Z,100.00
2023-03-24T09:25:51.755Z,100.00
2023-03-24T09:28:20.466Z,100.00
2023-03-24T09:30:49.523Z,100.00
2023-03-24T09:33:18.502Z,100.00
2023-03-24T09:35:47.193Z,100.00
2023-03-24T09:38:16.056Z,100.00
2023-03-24T09:40:56.121Z,100.00
2023-03-24T09:43:32.858Z,100.00
2023-03-24T09:46:05.844Z,100.00
2023-03-24T09:48:38.365Z,99.46
2023-03-24T09:51:11.426Z,97.87
2023-03-24T09:53:46.842Z,98.20
2023-03-24T09:56:20.397Z,96.96
2023-03-24T09:58:54.974Z,97.53
2023-03-24T10:01:24.317Z,96.66
2023-03-24T10:03:53.392Z,95.88
2023-03-24T10:06:26.924Z,94.91
2023-03-24T10:09:08.548Z,95.03
2023-03-24T10:11:45.462Z,94.54
2023-03-24T10:14:27.038Z,94.15
2023-03-24T10:17:02.238Z,93.82
2023-03-24T10:19:42.141Z,93.64
2023-03-24T10:22:19.305Z,92.91
2023-03-24T10:24:58.381Z,93.70
2023-03-24T10:27:34.227Z,92.36
2023-03-24T10:30:08.706Z,90.93
2023-03-24T10:32:38.553Z,89.22
2023-03-24T10:35:10.491Z,89.45
2023-03-24T10:37:39.441Z,88.30
2023-03-24T10:40:18.329Z,85.32
2023-03-24T10:43:07.322Z,84.75
2023-03-24T10:45:41.546Z,84.33
2023-03-24T10:48:10.633Z,83.27
2023-03-24T10:50:44.620Z,82.76
2023-03-24T10:53:20.258Z,80.97
2023-03-24T10:55:50.979Z,79.73
2023-03-24T10:58:31.173Z,77.41
2023-03-24T11:01:01.240Z,76.75
2023-03-24T11:03:33.209Z,78.27
2023-03-24T11:06:03.617Z,77.35
2023-03-24T11:08:36.618Z,77.75
2023-03-24T11:11:16.303Z,76.67
2023-03-24T11:13:56.915Z,76.87
2023-03-24T11:16:30.021Z,77.05
2023-03-24T11:19:01.293Z,76.45
2023-03-24T11:21:31.860Z,77.32
2023-03-24T11:24:02.633Z,77.69
2023-03-24T11:26:34.155Z,77.35
2023-03-24T11:29:08.288Z,78.52
2023-03-24T11:31:39.633Z,77.50
2023-03-24T11:34:14.848Z,78.92
2023-03-24T11:36:50.354Z,78.74
2023-03-24T11:39:21.530Z,78.05
2023-03-24T11:42:01.935Z,77.90
2023-03-24T11:44:43.384Z,77.51
2023-03-24T11:47:14.862Z,78.87
2023-03-24T11:49:47.182Z,79.67
2023-03-24T11:52:24.075Z,81.02
2023-03-24T11:54:53.008Z,79.76
2023-03-24T11:57:33.233Z,80.83
2023-03-24T12:00:09.481Z,82.20
2023-03-24T12:02:55.339Z,82.60
2023-03-24T12:05:33.398Z,82.83
2023-03-24T12:08:34.360Z,82.19
2023-03-24T12:11:10.374Z,82.64
2023-03-24T12:13:42.434Z,83.19
2023-03-24T12:16:27.581Z,82.41
2023-03-24T12:19:26.282Z,83.16
2023-03-24T12:22:06.074Z,83.59
2023-03-24T12:24:49.496Z,83.22
2023-03-24T12:27:30.486Z,83.63
2023-03-24T12:32:55.540Z,83.93
2023-03-24T12:35:39.800Z,84.09
2023-03-24T12:38:32.717Z,84.47
2023-03-24T12:41:26.278Z,84.69
2023-03-24T12:44:26.088Z,83.94
2023-03-24T12:47:05.331Z,82.57
2023-03-24T12:49:51.087Z,81.36
2023-03-24T12:52:33.598Z,80.48
2023-03-24T12:55:06.743Z,80.81
2023-03-24T12:57:42.011Z,80.86
2023-03-24T13:00:19.894Z,81.44
2023-03-24T13:02:53.430Z,80.90
2023-03-24T13:05:28.392Z,80.92
2023-03-24T13:08:02.745Z,81.24
2023-03-24T13:10:40.793Z,81.43
2023-03-24T13:13:15.227Z,81.76
2023-03-24T13:15:46.888Z,81.59
2023-03-24T13:18:29.118Z,82.07
2023-03-24T13:21:04.777Z,82.67
2023-03-24T13:23:41.863Z,82.62
2023-03-24T13:26:25.345Z,82.84
2023-03-24T13:29:06.315Z,83.21
2023-03-24T13:31:40.582Z,83.36
2023-03-24T13:34:22.643Z,83.67
2023-03-24T13:36:56.080Z,83.61
2023-03-24T13:39:28.047Z,83.85
2023-03-24T13:41:59.078Z,83.92
2023-03-24T13:44:32.302Z,83.73
2023-03-24T13:47:14.937Z,84.14
2023-03-24T13:49:52.616Z,84.22
2023-03-24T13:52:32.546Z,84.46
2023-03-24T13:55:03.100Z,84.33
2023-03-24T13:57:32.547Z,84.34
2023-03-24T14:00:12.193Z,84.41
2023-03-24T14:02:51.686Z,84.37
2023-03-24T14:05:43.645Z,84.15
2023-03-24T14:08:41.440Z,84.12
2023-03-24T14:11:27.678Z,83.99
2023-03-24T14:13:56.490Z,84.26
2023-03-24T14:16:44.329Z,83.73
2023-03-24T14:19:27.519Z,84.11
2023-03-24T14:22:16.997Z,84.45
2023-03-24T14:24:48.560Z,84.99
2023-03-24T14:27:32.170Z,84.85
2023-03-24T14:30:04.205Z,84.65
2023-03-24T14:32:40.396Z,84.15
2023-03-24T14:35:25.247Z,83.57
2023-03-24T14:37:56.729Z,83.32
2023-03-24T14:40:32.416Z,83.66
2023-03-24T14:43:18.492Z,83.79
2023-03-24T14:46:00.297Z,83.78
2023-03-24T14:48:41.935Z,82.89
2023-03-24T14:51:39.695Z,83.41
2023-03-24T14:54:16.700Z,83.27
2023-03-24T14:56:53.664Z,84.13
2023-03-24T14:59:32.765Z,83.38
2023-03-24T15:02:07.549Z,83.39
2023-03-24T15:04:39.532Z,83.27
2023-03-24T15:07:08.178Z,83.55
2023-03-24T15:09:39.315Z,83.97
2023-03-24T15:12:10.082Z,83.92
2023-03-24T15:14:39.049Z,83.99
2023-03-24T15:17:17.821Z,83.29
2023-03-24T15:19:47.078Z,83.12
2023-03-24T15:22:15.688Z,83.86
2023-03-24T15:24:45.082Z,83.46
2023-03-24T15:27:25.039Z,83.26
2023-03-24T15:29:59.427Z,83.05
2023-03-24T15:32:33.082Z,82.70
2023-03-24T15:35:06.797Z,82.98
2023-03-24T15:37:40.794Z,82.53
2023-03-24T15:40:39.648Z,82.57
2023-03-24T15:43:19.821Z,83.07
2023-03-24T15:46:01.432Z,83.12
2023-03-24T15:48:40.041Z,82.78
2023-03-24T15:51:11.861Z,82.94
2023-03-24T15:53:44.627Z,82.98
2023-03-24T15:56:19.987Z,82.68
2023-03-24T15:58:58.213Z,82.90
2023-03-24T16:01:31.729Z,83.56
2023-03-24T16:04:06.743Z,83.27
2023-03-24T16:06:37.515Z,83.40
2023-03-24T16:09:10.911Z,83.51
2023-03-24T16:11:39.572Z,83.00
2023-03-24T16:14:22.576Z,83.39
2023-03-24T16:16:55.707Z,83.04
2023-03-24T16:19:27.787Z,82.91
2023-03-24T16:21:56.486Z,83.03
2023-03-24T16:24:25.749Z,83.54
2023-03-24T16:26:54.455Z,83.92
2023-03-24T16:29:25.447Z,83.60
2023-03-24T16:31:57.269Z,83.27
2023-03-24T16:34:26.440Z,82.86
2023-03-24T16:36:57.437Z,81.79
2023-03-24T16:39:27.957Z,82.15
2023-03-24T16:41:57.314Z,82.38
2023-03-24T16:44:28.182Z,82.44
2023-03-24T16:46:57.183Z,82.93
2023-03-24T16:49:26.640Z,82.93
2023-03-24T16:51:55.416Z,83.01
2023-03-24T16:54:24.044Z,83.15
2023-03-24T16:56:52.729Z,83.42
2023-03-24T16:59:21.637Z,83.59
2023-03-24T17:01:54.119Z,83.70
2023-03-24T17:04:33.973Z,83.78
2023-03-24T17:07:02.783Z,84.01
2023-03-24T17:09:32.473Z,83.99
2023-03-24T17:12:02.523Z,84.07
2023-03-24T17:14:31.354Z,84.36
2023-03-24T17:17:02.981Z,84.49
2023-03-24T17:19:31.609Z,84.85
2023-03-24T17:22:03.428Z,85.14
2023-03-24T17:24:36.878Z,85.52
2023-03-24T17:27:11.647Z,85.98
2023-03-24T17:29:40.457Z,85.89
2023-03-24T17:32:11.156Z,85.92
2023-03-24T17:34:39.646Z,85.89
2023-03-24T17:37:08.210Z,86.20
2023-03-24T17:39:38.263Z,86.25
2023-03-24T17:42:07.164Z,86.24
2023-03-24T17:44:35.942Z,86.31
2023-03-24T17:47:04.768Z,86.79
2023-03-24T17:49:35.201Z,86.88
2023-03-24T17:52:03.612Z,87.00
2023-03-24T17:54:32.422Z,88.25
2023-03-24T17:57:01.349Z,88.83
2023-03-24T17:59:29.963Z,96.83
2023-03-24T18:01:58.480Z,100.00
2023-03-24T18:04:27.337Z,100.00
2023-03-24T18:06:57.227Z,100.00
2023-03-24T18:09:25.689Z,100.00
2023-03-24T18:11:54.134Z,100.00
2023-03-24T18:14:23.072Z,100.00
2023-03-24T18:16:51.512Z,100.00
2023-03-24T18:19:20.579Z,100.00
2023-03-24T18:21:49.039Z,100.00
2023-03-24T18:24:19.013Z,100.00
2023-03-24T18:26:49.243Z,100.00
2023-03-24T18:29:22.229Z,100.00
2023-03-24T18:31:51.518Z,100.00
2023-03-24T18:34:20.101Z,100.00
2023-03-24T18:36:49.527Z,100.00
2023-03-24T18:39:19.772Z,100.00
2023-03-24T18:41:48.306Z,100.00
2023-03-24T18:44:17.079Z,100.00
2023-03-24T18:46:45.602Z,100.00
2023-03-24T18:49:15.317Z,100.00
2023-03-24T18:51:45.582Z,100.00
2023-03-24T18:54:14.732Z,100.00
2023-03-24T18:56:44.936Z,100.00
2023-03-24T18:59:13.704Z,100.00
2023-03-24T19:01:42.550Z,100.00
2023-03-24T19:04:11.460Z,100.00
2023-03-24T19:06:42.690Z,100.00
2023-03-24T19:09:13.159Z,100.00
2023-03-24T19:11:43.468Z,100.00
2023-03-24T19:14:13.799Z,100.00
2023-03-24T19:16:42.600Z,100.00
2023-03-24T19:19:11.526Z,100.00
2023-03-24T19:21:40.624Z,100.00
2023-03-24T19:24:09.801Z,100.00
2023-03-24T19:26:38.488Z,100.00
2023-03-24T19:29:07.060Z,100.00
2023-03-24T19:31:37.622Z,100.00
2023-03-24T19:34:07.763Z,100.00
2023-03-24T19:36:37.263Z,100.00
2023-03-24T19:39:06.133Z,100.00
2023-03-24T19:41:34.977Z,100.00
2023-03-24T19:44:03.498Z,100.00
2023-03-24T19:46:32.563Z,100.00
2023-03-24T19:49:02.827Z,100.00
2023-03-24T19:51:31.561Z,100.00
2023-03-24T19:54:00.271Z,100.00
2023-03-24T19:56:29.489Z,100.00
2023-03-24T19:59:00.757Z,100.00
2023-03-24T20:01:35.175Z,100.00
2023-03-24T20:04:06.290Z,100.00
2023-03-24T20:06:34.854Z,100.00
2023-03-24T20:09:03.635Z,100.00
2023-03-24T20:11:32.463Z,100.00
2023-03-24T20:14:02.556Z,100.00
2023-03-24T20:16:31.493Z,100.00
2023-03-24T20:19:00.388Z,100.00
2023-03-24T20:21:30.690Z,100.00
2023-03-24T20:23:59.175Z,100.00
2023-03-24T20:26:29.140Z,100.00
2023-03-24T20:28:57.887Z,100.00
2023-03-24T20:31:26.697Z,100.00
2023-03-24T20:33:56.079Z,100.00
2023-03-24T20:36:24.577Z,100.00
2023-03-24T20:38:54.438Z,100.00
2023-03-24T20:41:22.993Z,100.00
2023-03-24T20:43:51.488Z,100.00
2023-03-24T20:46:20.848Z,100.00
2023-03-24T20:48:49.354Z,100.00
2023-03-24T20:51:18.553Z,100.00
2023-03-24T20:53:49.684Z,100.00
2023-03-24T20:56:19.878Z,100.00
2023-03-24T20:58:48.631Z,100.00
2023-03-24T21:01:20.909Z,100.00
2023-03-24T21:03:50.300Z,100.00
2023-03-24T21:06:20.214Z,100.00
2023-03-24T21:08:49.581Z,100.00
2023-03-24T21:11:19.507Z,100.00
2023-03-24T21:13:48.124Z,100.00
2023-03-24T21:16:19.854Z,100.00
2023-03-24T21:18:49.154Z,100.00
2023-03-24T21:21:17.659Z,100.00
2023-03-24T21:23:46.383Z,100.00
2023-03-24T21:26:18.139Z,100.00
2023-03-24T21:28:48.417Z,100.00
2023-03-24T21:31:20.733Z,100.00
2023-03-24T21:33:49.654Z,100.00
2023-03-24T21:36:19.516Z,100.00
2023-03-24T21:38:49.967Z,100.00
2023-03-24T21:41:19.610Z,100.00
2023-03-24T21:43:51.625Z,100.00
2023-03-24T21:46:22.347Z,100.00
2023-03-24T21:48:52.520Z,100.00
2023-03-24T21:51:24.219Z,100.00
2023-03-24T21:53:55.819Z,100.00
2023-03-24T21:56:24.456Z,100.00
2023-03-24T21:58:56.305Z,100.00
2023-03-24T22:01:25.220Z,100.00
2023-03-24T22:03:56.137Z,100.00
2023-03-24T22:06:24.904Z,100.00
2023-03-24T22:08:58.566Z,100.00
2023-03-24T22:11:27.643Z,99.81
2023-03-24T22:13:57.874Z,99.27
2023-03-24T22:16:26.269Z,99.23
2023-03-24T22:18:55.410Z,99.85
2023-03-24T22:21:24.285Z,99.77
2023-03-24T22:23:52.734Z,99.42
2023-03-24T22:26:21.376Z,99.48
2023-03-24T22:28:50.821Z,99.37
2023-03-24T22:31:23.279Z,99.73
2023-03-24T22:33:51.804Z,99.25
2023-03-24T22:36:20.425Z,99.24
2023-03-24T22:38:51.348Z,99.54
2023-03-24T22:41:19.821Z,98.97
2023-03-24T22:43:49.460Z,98.90
2023-03-24T22:46:18.110Z,99.27
2023-03-24T22:48:48.126Z,98.48
2023-03-24T22:51:19.483Z,98.92
2023-03-24T22:53:49.210Z,98.86
2023-03-24T22:56:17.788Z,98.47
2023-03-24T22:58:46.429Z,99.02
2023-03-24T23:01:15.281Z,98.40
2023-03-24T23:03:43.891Z,98.40
2023-03-24T23:06:16.037Z,98.25
2023-03-24T23:08:45.643Z,98.42
2023-03-24T23:11:14.352Z,98.54
2023-03-24T23:13:42.852Z,98.18
2023-03-24T23:16:11.629Z,98.21
2023-03-24T23:18:43.191Z,97.96
2023-03-24T23:21:15.282Z,97.67
2023-03-24T23:23:44.625Z,97.99
2023-03-24T23:26:25.513Z,97.93
2023-03-24T23:28:55.718Z,97.85
2023-03-24T23:31:27.351Z,97.74
2023-03-24T23:33:57.615Z,97.45
2023-03-24T23:36:28.627Z,97.46
2023-03-24T23:38:57.769Z,97.78
2023-03-24T23:41:26.655Z,97.16
2023-03-24T23:43:56.368Z,97.67
2023-03-24T23:46:26.251Z,97.08
2023-03-24T23:48:55.472Z,97.73
2023-03-24T23:51:23.955Z,100.00
2023-03-24T23:53:54.601Z,100.00
2023-03-24T23:56:23.093Z,98.93
2023-03-24T23:58:51.613Z,98.54
